Time;durP1;ratioP1;P1;durP2;ratioP2;P2;SDS_P1;SDS_P2;PMS_P1;PMS_P2;Temp;Humidity;BMP_temperature;BMP_pressure;BME280_temperature;BME280_humidity;BME280_pressure;Samples;Min_cycle;Max_cycle;Signal;HPM_P1;HPM_P2
2022/04/09 00:00:15;;;;;;;70.45;48.88;;;14.80;57.50;;;;;;4993990;28;98390;-53
2022/04/09 00:02:41;;;;;;;68.90;48.65;;;14.80;57.30;;;;;;4990028;28;96002;-40
2022/04/09 00:05:09;;;;;;;68.25;48.33;;;14.70;57.50;;;;;;4988002;28;99495;-42
2022/04/09 00:07:35;;;;;;;68.50;48.65;;;14.70;57.40;;;;;;4984582;28;96488;-53
2022/04/09 00:10:02;;;;;;;68.28;48.53;;;14.70;57.40;;;;;;4978294;28;96215;-42
2022/04/09 00:12:29;;;;;;;70.30;49.03;;;14.70;57.40;;;;;;4988762;28;95098;-39
2022/04/09 00:14:55;;;;;;;71.25;48.47;;;14.70;57.40;;;;;;4990853;28;94412;-35
2022/04/09 00:17:20;;;;;;;68.95;48.72;;;14.70;57.40;;;;;;4990748;27;95298;-39
2022/04/09 00:19:46;;;;;;;69.00;48.88;;;14.70;57.40;;;;;;4985398;28;95536;-39
2022/04/09 00:22:12;;;;;;;68.28;48.47;;;14.70;57.40;;;;;;4990147;28;101737;-40
2022/04/09 00:24:37;;;;;;;68.63;48.83;;;14.60;57.40;;;;;;4987793;28;98919;-40
2022/04/09 00:27:03;;;;;;;68.00;48.38;;;14.70;57.50;;;;;;4990116;28;96508;-39
2022/04/09 00:29:29;;;;;;;68.45;48.65;;;14.70;57.40;;;;;;4987618;28;94872;-40
2022/04/09 00:31:54;;;;;;;68.63;48.55;;;14.70;57.40;;;;;;4989266;28;95884;-38
2022/04/09 00:34:20;;;;;;;68.47;48.75;;;14.70;57.40;;;;;;4992545;28;96309;-40
2022/04/09 00:36:45;;;;;;;70.30;48.95;;;14.70;57.40;;;;;;4985892;28;97384;-37
2022/04/09 00:39:11;;;;;;;68.38;48.45;;;14.70;57.40;;;;;;4986044;28;98878;-38
2022/04/09 00:41:40;;;;;;;69.53;48.95;;;14.70;57.30;;;;;;4982593;28;95354;-44
2022/04/09 00:44:19;;;;;;;68.50;48.80;;;14.70;57.40;;;;;;4989263;28;95803;-39
2022/04/09 00:46:45;;;;;;;69.13;48.70;;;14.70;57.40;;;;;;4990264;28;103416;-37
2022/04/09 00:49:11;;;;;;;68.35;48.72;;;14.70;57.30;;;;;;4992390;28;101550;-37
2022/04/09 00:51:40;;;;;;;69.15;48.70;;;14.60;57.30;;;;;;4983860;28;95262;-38
2022/04/09 00:54:07;;;;;;;69.95;48.38;;;14.60;57.40;;;;;;4991792;28;94971;-42
2022/04/09 00:56:35;;;;;;;69.68;48.60;;;14.60;57.40;;;;;;4997891;28;95851;-36
2022/04/09 00:59:06;;;;;;;69.82;48.97;;;14.60;57.30;;;;;;4990444;28;95592;-37
2022/04/09 01:01:34;;;;;;;68.25;48.30;;;14.60;57.30;;;;;;4985787;28;96275;-40
2022/04/09 01:04:04;;;;;;;68.25;48.80;;;14.60;57.20;;;;;;4989504;27;96021;-37
2022/04/09 01:06:32;;;;;;;68.47;48.67;;;14.60;57.20;;;;;;4986761;28;94951;-37
2022/04/09 01:08:58;;;;;;;69.72;48.53;;;14.60;57.10;;;;;;4987469;28;94834;-36
2022/04/09 01:11:24;;;;;;;67.38;48.33;;;14.60;57.10;;;;;;4980907;28;96991;-39
2022/04/09 01:13:51;;;;;;;68.97;48.53;;;14.60;57.30;;;;;;4991832;28;96035;-42
2022/04/09 01:16:16;;;;;;;69.13;48.92;;;14.60;57.20;;;;;;4989399;28;95026;-39
2022/04/09 01:18:42;;;;;;;68.72;48.63;;;14.50;57.80;;;;;;4985811;28;95330;-38
2022/04/09 01:21:08;;;;;;;67.53;48.35;;;14.60;57.20;;;;;;4982956;28;95075;-37
2022/04/09 01:23:33;;;;;;;67.80;48.42;;;14.50;57.30;;;;;;4987808;28;96143;-39
2022/04/09 01:26:01;;;;;;;68.15;48.65;;;14.50;57.20;;;;;;4989738;28;95040;-40
2022/04/09 01:28:27;;;;;;;68.68;48.72;;;14.50;57.30;;;;;;4989714;27;94687;-34
2022/04/09 01:30:54;;;;;;;69.32;48.60;;;14.50;57.20;;;;;;4986710;28;100365;-37
2022/04/09 01:33:21;;;;;;;69.35;48.58;;;14.50;57.10;;;;;;4989062;28;95025;-36
2022/04/09 01:35:48;;;;;;;68.93;48.42;;;14.50;57.30;;;;;;4990782;28;96203;-39
2022/04/09 01:38:14;;;;;;;67.90;48.53;;;14.50;57.20;;;;;;4994023;28;94829;-38
2022/04/09 01:40:40;;;;;;;67.97;48.47;;;14.50;57.20;;;;;;4986516;28;98936;-41
2022/04/09 01:43:07;;;;;;;69.05;48.58;;;14.50;57.20;;;;;;4990067;28;99007;-41
2022/04/09 01:45:33;;;;;;;70.00;48.53;;;14.50;57.10;;;;;;4997115;28;94596;-38
2022/04/09 01:47:59;;;;;;;69.55;48.72;;;14.50;57.10;;;;;;4993510;28;95062;-41
2022/04/09 01:50:27;;;;;;;68.45;48.72;;;14.50;57.30;;;;;;4988626;28;95765;-40
2022/04/09 01:52:53;;;;;;;68.25;48.55;;;14.50;57.20;;;;;;4993612;28;95426;-40
2022/04/09 01:55:19;;;;;;;70.18;48.67;;;14.50;57.10;;;;;;4994879;28;94884;-38
2022/04/09 01:57:46;;;;;;;69.00;48.70;;;14.50;57.10;;;;;;4993441;28;95537;-41
2022/04/09 02:00:13;;;;;;;68.63;48.55;;;14.40;57.10;;;;;;4994858;28;97441;-37
2022/04/09 02:02:40;;;;;;;69.18;48.45;;;14.50;57.00;;;;;;4988255;27;98355;-47
2022/04/09 02:05:06;;;;;;;68.28;48.47;;;14.40;57.00;;;;;;4994572;28;95040;-39
2022/04/09 02:07:32;;;;;;;69.45;48.53;;;14.40;57.00;;;;;;4985384;28;96153;-41
2022/04/09 02:09:57;;;;;;;72.00;48.58;;;14.40;57.00;;;;;;4984701;28;95102;-39
2022/04/09 02:12:23;;;;;;;70.65;48.45;;;14.40;56.90;;;;;;4993731;28;95072;-39
2022/04/09 02:14:49;;;;;;;67.80;48.60;;;14.40;57.00;;;;;;4997246;28;94916;-40
2022/04/09 02:17:15;;;;;;;68.38;48.45;;;14.40;57.20;;;;;;4997505;28;94231;-40
2022/04/09 02:19:40;;;;;;;69.05;48.75;;;14.40;57.00;;;;;;4986402;27;96937;-41
2022/04/09 02:22:06;;;;;;;67.63;48.33;;;14.40;57.10;;;;;;4990913;28;94715;-39
2022/04/09 02:24:32;;;;;;;68.05;48.38;;;14.40;57.00;;;;;;4990345;28;97296;-40
2022/04/09 02:26:58;;;;;;;68.55;48.63;;;14.40;57.00;;;;;;4995005;28;95319;-40
2022/04/09 02:29:24;;;;;;;69.53;48.65;;;14.40;56.80;;;;;;4994379;28;95793;-41
2022/04/09 02:31:49;;;;;;;68.82;48.42;;;14.40;56.80;;;;;;4988807;28;96059;-42
2022/04/09 02:34:15;;;;;;;68.10;48.42;;;14.40;56.90;;;;;;4987514;27;94968;-42
2022/04/09 02:36:41;;;;;;;68.00;48.65;;;14.40;56.90;;;;;;4990447;28;97219;-42
2022/04/09 02:39:07;;;;;;;70.03;48.55;;;14.40;57.00;;;;;;4987088;27;96329;-39
2022/04/09 02:41:33;;;;;;;68.93;48.63;;;14.40;56.90;;;;;;4994309;28;94846;-41
2022/04/09 02:43:59;;;;;;;69.00;48.72;;;14.40;57.00;;;;;;4993862;28;94817;-40
2022/04/09 02:46:25;;;;;;;68.40;48.47;;;14.40;56.80;;;;;;4998513;28;95084;-36
2022/04/09 02:48:50;;;;;;;69.38;48.80;;;14.40;56.90;;;;;;4991855;28;95914;-39
2022/04/09 02:51:17;;;;;;;68.95;48.47;;;14.40;57.00;;;;;;4983850;28;96091;-37
2022/04/09 02:53:44;;;;;;;68.90;48.50;;;14.40;56.80;;;;;;4997370;28;95034;-40
2022/04/09 02:56:10;;;;;;;69.90;48.75;;;14.30;56.70;;;;;;4990916;28;100741;-40
2022/04/09 02:58:35;;;;;;;69.60;48.75;;;14.30;56.80;;;;;;4994041;28;96836;-41
2022/04/09 03:01:01;;;;;;;70.45;48.72;;;14.40;56.80;;;;;;4993121;28;95363;-38
2022/04/09 03:03:27;;;;;;;70.20;48.67;;;14.40;56.60;;;;;;4992900;28;96842;-43
2022/04/09 03:05:52;;;;;;;70.30;49.05;;;14.30;56.80;;;;;;4992685;28;95934;-39
2022/04/09 03:08:18;;;;;;;67.78;48.60;;;14.30;56.60;;;;;;4989871;28;95107;-41
2022/04/09 03:10:44;;;;;;;68.43;48.90;;;14.30;56.70;;;;;;4983678;28;95367;-37
2022/04/09 03:13:10;;;;;;;68.28;48.60;;;14.30;56.80;;;;;;4990759;28;95493;-38
2022/04/09 03:15:35;;;;;;;68.13;48.70;;;14.30;56.90;;;;;;4993777;28;94996;-37
2022/04/09 03:18:01;;;;;;;67.43;48.65;;;14.30;56.80;;;;;;4994367;28;96586;-37
2022/04/09 03:20:26;;;;;;;68.32;48.60;;;14.30;56.70;;;;;;4988728;28;94989;-39
2022/04/09 03:22:52;;;;;;;68.68;48.67;;;14.30;56.70;;;;;;4992664;28;94626;-39
2022/04/09 03:25:18;;;;;;;70.55;48.63;;;14.30;56.90;;;;;;4993998;28;95101;-41
2022/04/09 03:27:43;;;;;;;68.88;48.58;;;14.30;56.80;;;;;;4998667;28;95050;-38
2022/04/09 03:30:10;;;;;;;67.18;48.33;;;14.30;56.90;;;;;;4995631;28;95969;-36
2022/04/09 03:32:36;;;;;;;69.28;48.75;;;14.30;56.70;;;;;;4992821;28;95694;-38
2022/04/09 03:35:07;;;;;;;67.65;48.33;;;14.20;56.60;;;;;;4994078;28;95814;-39
2022/04/09 03:37:36;;;;;;;68.68;48.88;;;14.20;56.80;;;;;;4994137;28;96230;-41
2022/04/09 03:40:04;;;;;;;68.88;48.67;;;14.20;56.70;;;;;;4984534;28;96969;-38
2022/04/09 03:42:30;;;;;;;69.28;48.53;;;14.20;56.80;;;;;;4989088;28;94534;-37
2022/04/09 03:44:55;;;;;;;67.57;48.50;;;14.20;56.70;;;;;;4991668;28;94831;-40
2022/04/09 03:47:21;;;;;;;67.93;48.53;;;14.20;56.80;;;;;;4989346;28;95141;-38
2022/04/09 03:49:47;;;;;;;67.60;48.65;;;14.30;56.80;;;;;;4995307;28;94675;-37
2022/04/09 03:52:13;;;;;;;70.20;48.65;;;14.20;56.70;;;;;;4990659;28;94836;-40
2022/04/09 03:54:39;;;;;;;68.20;48.70;;;14.20;56.70;;;;;;4993315;28;94247;-41
2022/04/09 03:57:05;;;;;;;69.25;48.47;;;14.20;56.80;;;;;;4989747;28;95655;-39
2022/04/09 03:59:31;;;;;;;69.53;48.75;;;14.20;56.80;;;;;;4991269;28;95791;-37
2022/04/09 04:01:56;;;;;;;68.05;48.42;;;14.20;56.80;;;;;;4985456;28;98974;-37
2022/04/09 04:04:22;;;;;;;68.70;48.92;;;14.20;56.60;;;;;;4995907;28;94980;-44
2022/04/09 04:06:48;;;;;;;70.18;48.95;;;14.20;56.80;;;;;;4986895;28;95788;-39
2022/04/09 04:09:16;;;;;;;69.05;48.83;;;14.20;56.70;;;;;;4989993;28;94862;-37
2022/04/09 04:11:45;;;;;;;68.65;48.60;;;14.10;56.70;;;;;;4985077;28;96531;-38
2022/04/09 04:14:12;;;;;;;68.68;48.70;;;14.20;56.80;;;;;;4990377;28;95903;-41
2022/04/09 04:16:40;;;;;;;68.38;48.75;;;14.20;56.80;;;;;;4986102;28;97803;-37
2022/04/09 04:19:06;;;;;;;67.97;48.70;;;14.20;56.70;;;;;;4994450;28;94935;-41
2022/04/09 04:21:31;;;;;;;69.05;48.58;;;14.20;56.70;;;;;;4987107;28;95283;-39
2022/04/09 04:23:57;;;;;;;68.03;48.55;;;14.20;56.70;;;;;;4988020;28;95074;-39
2022/04/09 04:26:23;;;;;;;69.45;48.50;;;14.20;56.60;;;;;;4991137;28;95679;-40
2022/04/09 04:28:48;;;;;;;69.50;48.65;;;14.20;56.60;;;;;;4991799;27;97385;-41
2022/04/09 04:31:18;;;;;;;67.07;48.45;;;14.20;56.50;;;;;;4983648;28;95494;-48
2022/04/09 04:33:44;;;;;;;68.35;48.42;;;14.20;56.50;;;;;;4990594;28;96331;-40
2022/04/09 04:36:10;;;;;;;68.72;48.70;;;14.20;56.60;;;;;;4990372;28;95680;-38
2022/04/09 04:38:35;;;;;;;68.90;48.65;;;14.10;56.50;;;;;;4994982;28;96713;-36
2022/04/09 04:41:04;;;;;;;68.32;48.78;;;14.10;56.50;;;;;;4976817;28;96368;-38
2022/04/09 04:43:30;;;;;;;67.88;48.72;;;14.10;56.70;;;;;;4984174;28;95036;-38
2022/04/09 04:45:55;;;;;;;69.82;48.75;;;14.10;56.50;;;;;;4990602;28;95381;-38
2022/04/09 04:48:21;;;;;;;68.07;48.55;;;14.10;56.60;;;;;;4989147;28;97893;-37
2022/04/09 04:50:47;;;;;;;68.13;48.47;;;14.10;56.60;;;;;;4988624;28;96447;-38
2022/04/09 04:53:12;;;;;;;68.95;48.45;;;14.10;56.60;;;;;;4993716;28;94670;-40
2022/04/09 04:55:38;;;;;;;69.43;48.53;;;14.10;56.70;;;;;;4994630;28;94799;-40
2022/04/09 04:58:04;;;;;;;67.97;48.50;;;14.10;56.60;;;;;;4990018;28;99589;-39
2022/04/09 05:00:30;;;;;;;69.70;48.70;;;14.10;56.50;;;;;;4989693;28;94988;-36
2022/04/09 05:02:58;;;;;;;67.38;48.45;;;14.10;56.50;;;;;;4988701;28;94957;-38
2022/04/09 05:05:24;;;;;;;67.72;48.65;;;14.10;56.40;;;;;;4999297;28;95375;-39
2022/04/09 05:07:51;;;;;;;68.68;48.63;;;14.10;56.50;;;;;;4990563;28;94614;-41
2022/04/09 05:10:27;;;;;;;67.75;48.45;;;14.10;56.40;;;;;;4984775;28;95093;-41
2022/04/09 05:12:54;;;;;;;70.32;48.55;;;14.10;56.60;;;;;;4992198;28;95066;-38
2022/04/09 05:15:20;;;;;;;68.72;48.70;;;14.10;56.50;;;;;;4996257;27;96281;-41
2022/04/09 05:17:52;;;;;;;71.95;48.65;;;14.10;56.50;;;;;;4993194;28;95860;-41
2022/04/09 05:20:18;;;;;;;67.72;48.30;;;14.10;56.50;;;;;;4995331;28;94601;-36
2022/04/09 05:22:46;;;;;;;67.10;48.17;;;14.10;56.50;;;;;;4993243;28;95062;-37
2022/04/09 05:25:13;;;;;;;68.20;48.47;;;14.10;56.40;;;;;;4997522;28;95232;-39
2022/04/09 05:27:40;;;;;;;68.40;48.53;;;14.10;56.40;;;;;;4996028;28;95051;-40
2022/04/09 05:30:06;;;;;;;68.47;48.53;;;14.10;56.50;;;;;;4991015;28;95231;-38
2022/04/09 05:32:32;;;;;;;72.88;48.63;;;14.10;56.40;;;;;;4993709;27;94116;-39
2022/04/09 05:34:58;;;;;;;68.32;48.55;;;14.10;56.40;;;;;;4991359;28;95509;-46
2022/04/09 05:37:23;;;;;;;68.10;48.80;;;14.10;56.40;;;;;;4988945;28;96052;-37
2022/04/09 05:39:49;;;;;;;70.05;48.75;;;14.10;56.40;;;;;;4988483;28;95834;-50
2022/04/09 05:42:16;;;;;;;67.80;48.70;;;14.10;56.20;;;;;;4981695;28;95808;-38
2022/04/09 05:44:41;;;;;;;69.82;48.58;;;14.10;56.40;;;;;;4994013;28;100252;-38
2022/04/09 05:47:07;;;;;;;67.13;48.17;;;14.10;56.30;;;;;;4991973;28;95031;-39
2022/04/09 05:49:32;;;;;;;68.05;48.45;;;14.10;56.30;;;;;;4995168;28;100995;-38
2022/04/09 05:51:58;;;;;;;67.60;48.63;;;14.10;56.20;;;;;;4981242;28;96732;-38
2022/04/09 05:54:24;;;;;;;66.97;48.42;;;14.10;56.30;;;;;;4991191;28;96647;-40
2022/04/09 05:56:51;;;;;;;68.30;48.35;;;14.10;56.30;;;;;;4990727;28;95591;-42
2022/04/09 05:59:16;;;;;;;69.15;48.65;;;14.00;56.30;;;;;;4993654;27;95931;-40
2022/04/09 06:01:42;;;;;;;68.28;48.55;;;14.10;56.30;;;;;;4995849;28;95319;-38
2022/04/09 06:04:08;;;;;;;69.32;48.53;;;14.10;56.30;;;;;;4996191;28;97025;-41
2022/04/09 06:06:34;;;;;;;70.30;49.10;;;14.10;56.20;;;;;;4995732;28;95882;-40
2022/04/09 06:09:00;;;;;;;70.00;48.65;;;14.10;56.20;;;;;;4992934;28;95180;-45
2022/04/09 06:11:26;;;;;;;68.28;48.65;;;14.10;56.30;;;;;;4983490;28;95147;-41
2022/04/09 06:13:51;;;;;;;68.50;48.75;;;14.10;56.30;;;;;;4986027;28;95153;-41
2022/04/09 06:16:17;;;;;;;71.47;48.95;;;14.10;56.30;;;;;;4991968;28;101792;-38
2022/04/09 06:18:43;;;;;;;68.82;48.55;;;14.10;56.20;;;;;;4993230;28;95408;-37
2022/04/09 06:21:09;;;;;;;70.03;48.85;;;14.10;56.20;;;;;;4995379;28;94215;-42
2022/04/09 06:23:35;;;;;;;69.00;48.75;;;14.00;56.30;;;;;;4994471;28;100003;-52
2022/04/09 06:26:00;;;;;;;69.38;48.83;;;14.10;56.30;;;;;;4991186;28;100809;-42
2022/04/09 06:28:26;;;;;;;69.40;48.88;;;14.10;56.30;;;;;;4990655;28;96140;-39
2022/04/09 06:30:52;;;;;;;67.90;48.63;;;14.10;56.40;;;;;;4992088;28;94926;-37
2022/04/09 06:33:18;;;;;;;70.55;48.72;;;14.10;56.40;;;;;;4990379;28;95044;-41
2022/04/09 06:35:44;;;;;;;66.82;48.25;;;14.10;56.30;;;;;;4988570;28;95972;-39
2022/04/09 06:38:09;;;;;;;69.57;49.13;;;14.10;56.30;;;;;;4993551;28;95032;-38
2022/04/09 06:40:35;;;;;;;70.78;48.97;;;14.00;56.30;;;;;;4988875;28;95167;-35
2022/04/09 06:43:01;;;;;;;70.35;48.95;;;14.10;56.40;;;;;;4985028;28;96391;-41
2022/04/09 06:45:27;;;;;;;69.68;48.65;;;14.10;56.30;;;;;;4994568;28;93993;-41
2022/04/09 06:47:52;;;;;;;69.28;48.92;;;14.10;56.30;;;;;;4995070;28;95756;-39
2022/04/09 06:50:18;;;;;;;68.15;48.67;;;14.10;56.30;;;;;;4992424;28;95540;-39
2022/04/09 06:52:45;;;;;;;69.88;48.78;;;14.10;56.30;;;;;;4989901;28;96294;-38
2022/04/09 06:55:11;;;;;;;69.68;48.90;;;14.10;56.30;;;;;;4990231;28;95897;-42
2022/04/09 06:57:38;;;;;;;67.97;48.55;;;14.10;56.30;;;;;;4993128;28;94658;-38
2022/04/09 07:00:07;;;;;;;70.30;49.13;;;14.10;56.20;;;;;;4988225;28;95144;-38
2022/04/09 07:02:33;;;;;;;70.22;49.08;;;14.10;56.00;;;;;;4991699;28;95320;-38
2022/04/09 07:04:59;;;;;;;69.75;48.85;;;14.10;56.20;;;;;;4995524;28;94994;-38
2022/04/09 07:07:26;;;;;;;68.18;48.50;;;14.10;56.20;;;;;;4987155;28;95354;-41
2022/04/09 07:10:11;;;;;;;70.38;49.03;;;14.10;56.10;;;;;;4986991;28;94606;-37
2022/04/09 07:12:38;;;;;;;69.82;48.90;;;14.10;56.00;;;;;;4979201;28;96229;-38
2022/04/09 07:15:04;;;;;;;69.40;48.92;;;14.10;56.20;;;;;;4989829;28;95090;-37
2022/04/09 07:17:31;;;;;;;69.70;48.97;;;14.10;56.20;;;;;;4984367;28;95724;-39
2022/04/09 07:19:58;;;;;;;70.03;49.13;;;14.10;56.00;;;;;;4988603;28;95816;-40
2022/04/09 07:22:25;;;;;;;69.57;48.85;;;14.10;56.20;;;;;;4993458;28;94858;-41
2022/04/09 07:24:50;;;;;;;68.93;48.65;;;14.10;56.00;;;;;;4988203;28;95468;-47
2022/04/09 07:27:16;;;;;;;70.35;48.88;;;14.10;56.20;;;;;;4996834;28;95004;-38
2022/04/09 07:29:42;;;;;;;72.65;49.05;;;14.10;56.10;;;;;;4992784;28;96376;-40
2022/04/09 07:32:08;;;;;;;70.35;48.83;;;14.10;56.20;;;;;;4987642;28;95198;-41
2022/04/09 07:34:33;;;;;;;69.47;48.90;;;14.10;56.70;;;;;;4996019;28;95637;-38
2022/04/09 07:36:59;;;;;;;70.18;49.08;;;14.10;56.10;;;;;;4992451;28;95093;-38
2022/04/09 07:39:25;;;;;;;70.25;49.22;;;14.20;56.30;;;;;;4988531;28;95166;-48
2022/04/09 07:41:51;;;;;;;69.72;48.97;;;14.10;56.00;;;;;;4982459;28;97852;-41
2022/04/09 07:44:16;;;;;;;70.63;49.17;;;14.20;56.10;;;;;;4986921;28;95012;-44
2022/04/09 07:46:42;;;;;;;71.68;49.08;;;14.20;55.90;;;;;;4990995;28;96580;-39
2022/04/09 07:49:07;;;;;;;70.65;48.92;;;14.20;56.00;;;;;;4987789;28;95177;-36
2022/04/09 07:51:33;;;;;;;68.38;48.90;;;14.20;56.10;;;;;;4987080;28;95231;-38
2022/04/09 07:53:59;;;;;;;69.10;48.67;;;14.20;55.90;;;;;;4993485;28;100082;-36
2022/04/09 07:56:24;;;;;;;71.32;49.00;;;14.20;56.00;;;;;;4991356;28;95165;-40
2022/04/09 07:58:50;;;;;;;71.57;49.13;;;14.20;56.10;;;;;;4992080;28;94612;-40
2022/04/09 08:01:16;;;;;;;72.82;48.83;;;14.20;56.10;;;;;;4993445;28;97391;-37
2022/04/09 08:03:41;;;;;;;72.82;48.85;;;14.20;55.90;;;;;;4990617;28;95585;-40
2022/04/09 08:06:07;;;;;;;69.65;49.03;;;14.20;56.30;;;;;;4991164;28;95635;-39
2022/04/09 08:08:33;;;;;;;68.97;48.72;;;14.30;56.30;;;;;;4988211;28;94874;-39
2022/04/09 08:10:59;;;;;;;70.72;48.95;;;14.30;56.20;;;;;;4986204;28;96044;-40
2022/04/09 08:13:25;;;;;;;69.75;48.85;;;14.30;56.00;;;;;;4989325;28;95050;-41
2022/04/09 08:15:50;;;;;;;70.93;49.03;;;14.30;56.10;;;;;;4992727;28;94650;-36
2022/04/09 08:18:16;;;;;;;70.60;49.05;;;14.30;56.30;;;;;;4993757;28;95227;-40
2022/04/09 08:20:42;;;;;;;71.03;49.13;;;14.30;56.10;;;;;;4986122;28;95335;-48
2022/04/09 08:23:07;;;;;;;70.18;49.20;;;14.30;56.10;;;;;;4995353;28;95433;-38
2022/04/09 08:25:33;;;;;;;72.25;49.20;;;14.30;56.20;;;;;;4984048;28;95870;-39
2022/04/09 08:28:00;;;;;;;68.85;48.92;;;14.30;55.70;;;;;;4991460;28;95094;-38
2022/04/09 08:30:26;;;;;;;71.35;48.80;;;14.30;56.10;;;;;;4988541;28;95981;-39
2022/04/09 08:32:52;;;;;;;68.82;48.85;;;14.30;56.20;;;;;;4988282;28;95477;-41
2022/04/09 08:35:18;;;;;;;69.40;48.80;;;14.30;56.00;;;;;;4989616;28;94929;-41
2022/04/09 08:37:52;;;;;;;73.45;49.50;;;14.40;56.70;;;;;;4992629;28;96168;-47
2022/04/09 08:40:18;;;;;;;72.43;49.03;;;14.40;56.90;;;;;;4988765;28;95591;-37
2022/04/09 08:42:44;;;;;;;72.18;49.28;;;14.50;56.60;;;;;;4976575;28;95089;-40
2022/04/09 08:45:10;;;;;;;71.38;49.35;;;14.50;57.00;;;;;;4984329;28;94971;-36
2022/04/09 08:47:37;;;;;;;73.70;49.53;;;14.60;57.20;;;;;;4992314;28;94554;-39
2022/04/09 08:50:03;;;;;;;71.97;49.33;;;14.60;56.90;;;;;;4985213;28;95700;-41
2022/04/09 08:52:29;;;;;;;74.30;49.53;;;14.60;56.70;;;;;;4987229;28;95299;-40
2022/04/09 08:54:54;;;;;;;71.50;49.40;;;14.60;56.70;;;;;;4980640;28;96131;-38
2022/04/09 08:57:20;;;;;;;72.80;49.28;;;14.60;56.80;;;;;;4994422;28;95193;-41
2022/04/09 08:59:46;;;;;;;74.00;49.25;;;14.70;57.20;;;;;;4981090;28;94610;-42
2022/04/09 09:02:12;;;;;;;72.88;49.58;;;14.90;57.00;;;;;;4991454;28;95354;-45
2022/04/09 09:04:38;;;;;;;74.53;49.42;;;15.00;56.60;;;;;;4987981;28;97590;-44
2022/04/09 09:07:18;;;;;;;72.15;49.13;;;15.00;56.80;;;;;;4989400;28;98593;-42
2022/04/09 09:09:43;;;;;;;74.63;49.65;;;15.20;57.00;;;;;;4990076;28;94859;-43
2022/04/09 09:12:12;;;;;;;76.00;49.80;;;15.30;57.60;;;;;;4982329;28;96921;-41
2022/04/09 09:14:43;;;;;;;76.10;50.00;;;15.50;57.70;;;;;;4988724;27;95873;-41
2022/04/09 09:17:10;;;;;;;74.30;49.63;;;15.70;56.80;;;;;;4982640;28;95189;-42
2022/04/09 09:19:47;;;;;;;74.72;49.60;;;15.90;57.00;;;;;;4989166;28;101319;-41
2022/04/09 09:22:13;;;;;;;73.85;50.08;;;16.20;56.60;;;;;;4980320;28;96161;-43
2022/04/09 09:24:39;;;;;;;72.82;50.00;;;16.40;56.00;;;;;;4977682;28;96565;-44
2022/04/09 09:27:07;;;;;;;75.38;50.33;;;16.60;55.40;;;;;;4985103;28;96545;-40
2022/04/09 09:29:36;;;;;;;74.07;50.17;;;16.80;54.80;;;;;;4986874;28;95482;-43
2022/04/09 09:32:04;;;;;;;74.82;50.00;;;17.00;54.60;;;;;;4987526;28;102746;-40
2022/04/09 09:34:33;;;;;;;77.50;50.25;;;17.20;54.20;;;;;;4989344;28;95032;-40
2022/04/09 09:36:58;;;;;;;73.35;50.47;;;17.40;53.70;;;;;;4990694;28;95725;-41
2022/04/09 09:39:25;;;;;;;73.63;50.35;;;17.60;53.50;;;;;;4984370;28;96404;-43
2022/04/09 09:41:53;;;;;;;76.60;50.65;;;17.70;53.20;;;;;;4986407;28;95718;-41
2022/04/09 09:44:34;;;;;;;75.40;50.38;;;17.80;52.90;;;;;;4983181;28;96179;-42
2022/04/09 09:47:08;;;;;;;73.57;50.43;;;18.00;52.90;;;;;;4982167;28;95674;-42
2022/04/09 09:49:55;;;;;;;77.30;50.90;;;18.10;52.60;;;;;;4987387;28;100212;-41
2022/04/09 09:52:28;;;;;;;73.07;50.63;;;18.30;52.50;;;;;;4977125;28;96347;-43
2022/04/09 09:54:58;;;;;;;82.85;52.85;;;18.40;52.40;;;;;;4990382;28;95219;-44
2022/04/09 09:57:28;;;;;;;78.82;52.53;;;18.60;52.40;;;;;;4990164;28;95512;-43
2022/04/09 10:00:07;;;;;;;76.75;51.58;;;18.70;52.10;;;;;;4980162;28;100204;-42
2022/04/09 10:02:33;;;;;;;76.68;51.25;;;18.80;51.70;;;;;;4984989;27;95137;-43
2022/04/09 10:04:59;;;;;;;74.63;51.13;;;18.90;51.30;;;;;;4987478;28;96017;-44
2022/04/09 10:07:25;;;;;;;77.43;51.05;;;19.00;50.70;;;;;;4990129;28;96872;-43
2022/04/09 10:09:53;;;;;;;73.13;50.97;;;19.10;50.80;;;;;;4990400;28;96761;-40
2022/04/09 10:12:23;;;;;;;74.35;50.85;;;19.20;50.20;;;;;;4983555;28;96616;-44
2022/04/09 10:14:50;;;;;;;73.82;50.97;;;19.30;50.10;;;;;;4982728;28;99300;-42
2022/04/09 10:17:18;;;;;;;75.28;50.92;;;19.40;49.80;;;;;;4989198;28;94860;-41
2022/04/09 10:19:48;;;;;;;74.55;51.22;;;19.40;49.80;;;;;;4987056;28;96032;-43
2022/04/09 10:22:15;;;;;;;74.07;50.72;;;19.40;49.50;;;;;;4982627;28;99775;-44
2022/04/09 10:24:41;;;;;;;76.75;51.25;;;19.50;49.50;;;;;;4985707;28;96256;-43
2022/04/09 10:27:08;;;;;;;82.10;51.28;;;19.60;49.20;;;;;;4991300;28;94713;-43
2022/04/09 10:29:47;;;;;;;74.85;50.83;;;19.60;49.10;;;;;;4990255;28;95216;-43
2022/04/09 10:32:39;;;;;;;77.53;50.95;;;19.70;49.10;;;;;;4980728;28;95595;-41
2022/04/09 10:35:25;;;;;;;76.95;51.50;;;19.60;48.80;;;;;;4991699;28;96119;-43
2022/04/09 10:38:15;;;;;;;74.20;51.40;;;19.60;48.50;;;;;;4989532;28;99830;-42
2022/04/09 10:40:43;;;;;;;72.57;50.92;;;19.70;48.90;;;;;;4985220;27;99986;-44
2022/04/09 10:43:30;;;;;;;73.15;51.05;;;19.70;48.90;;;;;;4982485;28;96995;-43
2022/04/09 10:46:02;;;;;;;75.65;51.65;;;19.80;48.70;;;;;;4982636;28;98402;-43
2022/04/09 10:48:31;;;;;;;76.28;52.15;;;19.80;48.70;;;;;;4992044;28;95146;-43
2022/04/09 10:50:57;;;;;;;79.28;51.92;;;19.80;48.60;;;;;;4987442;28;95259;-44
2022/04/09 10:53:26;;;;;;;76.07;51.67;;;19.90;48.60;;;;;;4994488;28;95991;-43
2022/04/09 10:56:13;;;;;;;82.20;52.17;;;19.80;48.70;;;;;;4989722;28;95075;-42
2022/04/09 10:59:01;;;;;;;78.85;52.78;;;19.80;48.70;;;;;;4984314;28;96629;-38
2022/04/09 11:04:28;;;;;;;91.47;55.00;;;19.90;48.60;;;;;;4992698;28;103003;-43
2022/04/09 11:07:16;;;;;;;89.30;54.58;;;19.90;48.90;;;;;;4985877;28;95153;-45
2022/04/09 11:09:56;;;;;;;85.00;54.20;;;19.90;49.20;;;;;;4988756;28;95434;-42
2022/04/09 11:12:27;;;;;;;86.68;54.83;;;19.90;49.20;;;;;;4979234;28;95420;-43
2022/04/09 11:14:54;;;;;;;85.75;54.17;;;19.80;49.10;;;;;;4979488;28;95073;-40
2022/04/09 11:17:46;;;;;;;83.90;54.08;;;19.80;48.80;;;;;;4991142;28;95993;-44
2022/04/09 11:20:17;;;;;;;86.70;53.72;;;19.90;49.00;;;;;;4991279;28;95209;-45
2022/04/09 11:22:43;;;;;;;88.13;54.20;;;19.90;48.40;;;;;;4989573;28;95915;-42
2022/04/09 11:25:21;;;;;;;88.40;54.00;;;19.90;48.60;;;;;;4993216;28;94815;-43
2022/04/09 11:27:48;;;;;;;82.93;54.42;;;19.90;48.30;;;;;;4988541;28;98174;-42
2022/04/09 11:30:14;;;;;;;82.88;53.67;;;20.00;48.50;;;;;;4990673;28;95251;-44
2022/04/09 11:32:40;;;;;;;86.80;53.92;;;20.00;48.30;;;;;;4994237;28;95478;-44
2022/04/09 11:35:12;;;;;;;84.88;53.83;;;20.00;48.30;;;;;;5000145;27;95066;-44
2022/04/09 11:37:49;;;;;;;79.95;53.60;;;20.00;48.20;;;;;;4989321;28;95134;-41
2022/04/09 11:40:16;;;;;;;83.03;53.30;;;20.00;48.40;;;;;;4993511;28;95012;-43
2022/04/09 11:42:53;;;;;;;83.03;53.50;;;20.00;48.20;;;;;;4982992;28;95445;-41
2022/04/09 11:45:27;;;;;;;81.22;53.13;;;20.00;48.30;;;;;;4989238;28;97017;-43
2022/04/09 11:47:58;;;;;;;79.97;53.05;;;19.90;48.50;;;;;;4993249;28;96126;-43
2022/04/09 11:50:25;;;;;;;77.97;52.75;;;19.90;48.60;;;;;;4994207;27;95058;-42
2022/04/09 11:52:54;;;;;;;79.68;52.63;;;19.90;48.50;;;;;;4988283;28;97506;-44
2022/04/09 11:55:20;;;;;;;78.50;52.63;;;19.90;48.60;;;;;;4995777;27;95560;-44
2022/04/09 11:57:51;;;;;;;76.97;52.13;;;19.80;48.50;;;;;;4995079;28;95081;-44
2022/04/09 12:00:19;;;;;;;77.80;52.28;;;19.80;48.50;;;;;;4997136;28;98157;-44
2022/04/09 12:02:44;;;;;;;77.15;52.65;;;19.70;48.50;;;;;;4993206;28;95786;-42
2022/04/09 12:05:12;;;;;;;77.13;52.42;;;19.70;48.50;;;;;;4995173;28;95139;-44
2022/04/09 12:07:46;;;;;;;75.72;52.67;;;19.70;48.70;;;;;;4981461;28;95507;-41
2022/04/09 12:10:25;;;;;;;76.38;52.38;;;19.60;48.50;;;;;;4993553;28;94278;-43
2022/04/09 12:12:59;;;;;;;76.32;52.42;;;19.60;48.60;;;;;;4981550;27;100970;-43
2022/04/09 12:15:32;;;;;;;75.90;52.13;;;19.70;48.60;;;;;;4986374;28;95794;-44
2022/04/09 12:17:59;;;;;;;74.63;51.83;;;19.70;48.60;;;;;;4991118;28;96372;-44
2022/04/09 12:20:43;;;;;;;77.95;52.58;;;19.60;48.40;;;;;;4993606;28;94971;-40
2022/04/09 12:23:09;;;;;;;75.95;52.22;;;19.60;48.70;;;;;;4993717;28;95180;-43
2022/04/09 12:25:42;;;;;;;77.63;52.22;;;19.60;48.60;;;;;;4988139;28;95052;-43
2022/04/09 12:28:22;;;;;;;76.15;52.65;;;19.50;48.60;;;;;;4984997;28;95144;-44
2022/04/09 12:30:49;;;;;;;76.82;52.00;;;19.50;48.70;;;;;;4991160;28;95494;-43